sensor_id;sensor_type;location;lat;lon;timestamp;P1;durP1;ratioP1;P2;durP2;ratioP2
67140;SDS011;54058;52.010;5.546;2022-10-04T00:01:20;12.50;;;4.80;;
67140;SDS011;54058;52.010;5.546;2022-10-04T00:03:48;13.32;;;4.50;;
67140;SDS011;54058;52.010;5.546;2022-10-04T00:06:34;11.98;;;5.35;;
67140;SDS011;54058;52.010;5.546;2022-10-04T00:09:11;12.13;;;4.82;;
67140;SDS011;54058;52.010;5.546;2022-10-04T00:11:42;9.25;;;4.00;;
67140;SDS011;54058;52.010;5.546;2022-10-04T00:14:17;19.90;;;6.10;;
67140;SDS011;54058;52.010;5.546;2022-10-04T00:16:49;11.82;;;5.38;;
67140;SDS011;54058;52.010;5.546;2022-10-04T00:24:20;10.18;;;4.78;;
67140;SDS011;54058;52.010;5.546;2022-10-04T00:29:22;15.43;;;5.32;;
67140;SDS011;54058;52.010;5.546;2022-10-04T00:37:01;10.55;;;4.90;;
67140;SDS011;54058;52.010;5.546;2022-10-04T00:44:43;10.32;;;4.97;;
67140;SDS011;54058;52.010;5.546;2022-10-04T00:47:17;13.75;;;5.20;;
67140;SDS011;54058;52.010;5.546;2022-10-04T00:52:29;10.65;;;5.18;;
67140;SDS011;54058;52.010;5.546;2022-10-04T00:54:59;18.92;;;5.45;;
67140;SDS011;54058;52.010;5.546;2022-10-04T00:57:36;10.23;;;5.38;;
67140;SDS011;54058;52.010;5.546;2022-10-04T01:00:14;14.15;;;5.85;;
67140;SDS011;54058;52.010;5.546;2022-10-04T01:05:24;18.23;;;6.68;;
67140;SDS011;54058;52.010;5.546;2022-10-04T01:07:57;13.35;;;6.38;;
67140;SDS011;54058;52.010;5.546;2022-10-04T01:10:53;10.48;;;6.50;;
67140;SDS011;54058;52.010;5.546;2022-10-04T01:13:29;15.15;;;6.65;;
67140;SDS011;54058;52.010;5.546;2022-10-04T01:16:12;16.13;;;7.10;;
67140;SDS011;54058;52.010;5.546;2022-10-04T01:18:43;12.80;;;6.78;;
67140;SDS011;54058;52.010;5.546;2022-10-04T01:24:19;14.07;;;6.50;;
67140;SDS011;54058;52.010;5.546;2022-10-04T01:26:38;14.73;;;6.45;;
67140;SDS011;54058;52.010;5.546;2022-10-04T01:29:17;13.98;;;6.22;;
67140;SDS011;54058;52.010;5.546;2022-10-04T01:31:49;19.23;;;6.78;;
67140;SDS011;54058;52.010;5.546;2022-10-04T01:34:21;13.70;;;6.55;;
67140;SDS011;54058;52.010;5.546;2022-10-04T01:36:48;11.95;;;5.78;;
67140;SDS011;54058;52.010;5.546;2022-10-04T01:39:17;10.45;;;5.75;;
67140;SDS011;54058;52.010;5.546;2022-10-04T01:41:46;14.27;;;6.28;;
67140;SDS011;54058;52.010;5.546;2022-10-04T01:44:17;10.60;;;6.95;;
67140;SDS011;54058;52.010;5.546;2022-10-04T01:46:55;10.00;;;5.80;;
67140;SDS011;54058;52.010;5.546;2022-10-04T01:49:27;10.05;;;6.50;;
67140;SDS011;54058;52.010;5.546;2022-10-04T01:51:59;12.35;;;6.50;;
67140;SDS011;54058;52.010;5.546;2022-10-04T01:54:30;8.63;;;6.28;;
67140;SDS011;54058;52.010;5.546;2022-10-04T01:57:05;12.50;;;6.53;;
67140;SDS011;54058;52.010;5.546;2022-10-04T01:59:43;14.15;;;6.55;;
67140;SDS011;54058;52.010;5.546;2022-10-04T02:02:21;16.63;;;7.95;;
67140;SDS011;54058;52.010;5.546;2022-10-04T02:04:56;13.50;;;5.83;;
67140;SDS011;54058;52.010;5.546;2022-10-04T02:07:23;11.77;;;6.43;;
67140;SDS011;54058;52.010;5.546;2022-10-04T02:09:54;12.43;;;6.68;;
67140;SDS011;54058;52.010;5.546;2022-10-04T02:12:23;13.10;;;6.30;;
67140;SDS011;54058;52.010;5.546;2022-10-04T02:14:52;11.88;;;6.30;;
67140;SDS011;54058;52.010;5.546;2022-10-04T02:17:21;12.15;;;6.90;;
67140;SDS011;54058;52.010;5.546;2022-10-04T02:19:51;12.48;;;6.45;;
67140;SDS011;54058;52.010;5.546;2022-10-04T02:22:17;11.63;;;6.70;;
67140;SDS011;54058;52.010;5.546;2022-10-04T02:24:44;14.32;;;8.23;;
67140;SDS011;54058;52.010;5.546;2022-10-04T02:27:12;12.80;;;6.13;;
67140;SDS011;54058;52.010;5.546;2022-10-04T02:29:38;16.90;;;6.57;;
67140;SDS011;54058;52.010;5.546;2022-10-04T02:32:04;13.88;;;7.07;;
67140;SDS011;54058;52.010;5.546;2022-10-04T02:34:50;14.77;;;7.72;;
67140;SDS011;54058;52.010;5.546;2022-10-04T02:37:17;24.77;;;7.70;;
67140;SDS011;54058;52.010;5.546;2022-10-04T02:39:43;15.93;;;7.18;;
67140;SDS011;54058;52.010;5.546;2022-10-04T02:44:59;15.80;;;7.13;;
67140;SDS011;54058;52.010;5.546;2022-10-04T02:47:43;17.05;;;7.03;;
67140;SDS011;54058;52.010;5.546;2022-10-04T02:50:20;13.00;;;6.35;;
67140;SDS011;54058;52.010;5.546;2022-10-04T02:53:01;16.50;;;7.40;;
67140;SDS011;54058;52.010;5.546;2022-10-04T02:55:50;12.45;;;7.05;;
67140;SDS011;54058;52.010;5.546;2022-10-04T02:58:18;10.32;;;6.80;;
67140;SDS011;54058;52.010;5.546;2022-10-04T03:01:05;19.88;;;7.20;;
67140;SDS011;54058;52.010;5.546;2022-10-04T03:03:45;12.77;;;7.07;;
67140;SDS011;54058;52.010;5.546;2022-10-04T03:06:15;13.93;;;7.25;;
67140;SDS011;54058;52.010;5.546;2022-10-04T03:11:18;14.77;;;7.63;;
67140;SDS011;54058;52.010;5.546;2022-10-04T03:13:48;11.00;;;7.43;;
67140;SDS011;54058;52.010;5.546;2022-10-04T03:16:16;13.30;;;7.63;;
67140;SDS011;54058;52.010;5.546;2022-10-04T03:18:43;15.05;;;7.38;;
67140;SDS011;54058;52.010;5.546;2022-10-04T03:21:11;15.45;;;7.57;;
67140;SDS011;54058;52.010;5.546;2022-10-04T03:23:38;14.38;;;6.90;;
67140;SDS011;54058;52.010;5.546;2022-10-04T03:28:48;11.35;;;7.80;;
67140;SDS011;54058;52.010;5.546;2022-10-04T03:31:15;18.48;;;6.40;;
67140;SDS011;54058;52.010;5.546;2022-10-04T03:33:41;13.07;;;7.30;;
67140;SDS011;54058;52.010;5.546;2022-10-04T03:36:11;15.35;;;7.45;;
67140;SDS011;54058;52.010;5.546;2022-10-04T03:38:40;17.23;;;7.18;;
67140;SDS011;54058;52.010;5.546;2022-10-04T03:41:06;15.45;;;7.38;;
67140;SDS011;54058;52.010;5.546;2022-10-04T03:43:36;13.02;;;6.97;;
67140;SDS011;54058;52.010;5.546;2022-10-04T03:46:09;13.80;;;7.50;;
67140;SDS011;54058;52.010;5.546;2022-10-04T03:48:38;10.70;;;6.88;;
67140;SDS011;54058;52.010;5.546;2022-10-04T03:51:09;15.13;;;6.82;;
67140;SDS011;54058;52.010;5.546;2022-10-04T03:53:41;16.30;;;6.53;;
67140;SDS011;54058;52.010;5.546;2022-10-04T03:56:12;14.48;;;6.57;;
67140;SDS011;54058;52.010;5.546;2022-10-04T03:58:42;14.73;;;7.40;;
67140;SDS011;54058;52.010;5.546;2022-10-04T04:03:51;13.30;;;7.35;;
67140;SDS011;54058;52.010;5.546;2022-10-04T04:06:24;15.90;;;7.03;;
67140;SDS011;54058;52.010;5.546;2022-10-04T04:08:59;12.20;;;6.85;;
67140;SDS011;54058;52.010;5.546;2022-10-04T04:11:25;9.90;;;6.68;;
67140;SDS011;54058;52.010;5.546;2022-10-04T04:13:54;14.45;;;7.40;;
67140;SDS011;54058;52.010;5.546;2022-10-04T04:16:28;14.73;;;7.22;;
67140;SDS011;54058;52.010;5.546;2022-10-04T04:18:55;13.40;;;7.10;;
67140;SDS011;54058;52.010;5.546;2022-10-04T04:21:25;11.50;;;6.95;;
67140;SDS011;54058;52.010;5.546;2022-10-04T04:23:56;12.90;;;6.65;;
67140;SDS011;54058;52.010;5.546;2022-10-04T04:31:31;11.18;;;6.20;;
67140;SDS011;54058;52.010;5.546;2022-10-04T04:34:12;14.60;;;7.18;;
67140;SDS011;54058;52.010;5.546;2022-10-04T04:36:44;16.17;;;6.97;;
67140;SDS011;54058;52.010;5.546;2022-10-04T04:39:14;14.68;;;6.68;;
67140;SDS011;54058;52.010;5.546;2022-10-04T04:42:01;10.40;;;6.38;;
67140;SDS011;54058;52.010;5.546;2022-10-04T04:44:30;8.02;;;6.22;;
67140;SDS011;54058;52.010;5.546;2022-10-04T04:46:57;15.73;;;6.72;;
67140;SDS011;54058;52.010;5.546;2022-10-04T04:49:24;9.95;;;6.35;;
67140;SDS011;54058;52.010;5.546;2022-10-04T04:51:53;17.63;;;6.68;;
67140;SDS011;54058;52.010;5.546;2022-10-04T04:54:22;9.90;;;6.38;;
67140;SDS011;54058;52.010;5.546;2022-10-04T04:56:50;13.90;;;6.47;;
67140;SDS011;54058;52.010;5.546;2022-10-04T04:59:17;9.35;;;6.30;;
67140;SDS011;54058;52.010;5.546;2022-10-04T05:01:46;15.82;;;6.93;;
67140;SDS011;54058;52.010;5.546;2022-10-04T05:04:19;12.60;;;7.00;;
67140;SDS011;54058;52.010;5.546;2022-10-04T05:06:47;11.57;;;7.13;;
67140;SDS011;54058;52.010;5.546;2022-10-04T05:09:28;9.43;;;6.55;;
67140;SDS011;54058;52.010;5.546;2022-10-04T05:14:46;14.63;;;7.50;;
67140;SDS011;54058;52.010;5.546;2022-10-04T05:17:18;14.23;;;7.07;;
67140;SDS011;54058;52.010;5.546;2022-10-04T05:19:47;12.55;;;7.30;;
67140;SDS011;54058;52.010;5.546;2022-10-04T05:22:15;15.35;;;6.53;;
67140;SDS011;54058;52.010;5.546;2022-10-04T05:24:46;13.40;;;6.80;;
67140;SDS011;54058;52.010;5.546;2022-10-04T05:27:17;16.88;;;6.85;;
67140;SDS011;54058;52.010;5.546;2022-10-04T05:35:18;12.38;;;6.82;;
67140;SDS011;54058;52.010;5.546;2022-10-04T05:48:35;14.90;;;6.90;;
67140;SDS011;54058;52.010;5.546;2022-10-04T05:51:11;11.68;;;7.13;;
67140;SDS011;54058;52.010;5.546;2022-10-04T05:53:42;12.50;;;7.20;;
67140;SDS011;54058;52.010;5.546;2022-10-04T05:59:22;11.57;;;6.57;;
67140;SDS011;54058;52.010;5.546;2022-10-04T06:13:20;15.02;;;6.85;;
67140;SDS011;54058;52.010;5.546;2022-10-04T06:21:26;18.60;;;6.88;;
67140;SDS011;54058;52.010;5.546;2022-10-04T06:26:38;14.63;;;7.95;;
67140;SDS011;54058;52.010;5.546;2022-10-04T06:29:16;18.95;;;6.90;;
67140;SDS011;54058;52.010;5.546;2022-10-04T06:31:49;12.60;;;7.70;;
67140;SDS011;54058;52.010;5.546;2022-10-04T06:37:19;13.75;;;6.95;;
67140;SDS011;54058;52.010;5.546;2022-10-04T06:51:13;15.60;;;7.45;;
67140;SDS011;54058;52.010;5.546;2022-10-04T06:56:25;16.33;;;8.13;;
67140;SDS011;54058;52.010;5.546;2022-10-04T06:59:15;13.23;;;6.90;;
67140;SDS011;54058;52.010;5.546;2022-10-04T07:01:57;12.77;;;7.80;;
67140;SDS011;54058;52.010;5.546;2022-10-04T07:04:38;16.17;;;7.72;;
67140;SDS011;54058;52.010;5.546;2022-10-04T07:16:16;16.08;;;7.50;;
67140;SDS011;54058;52.010;5.546;2022-10-04T07:18:32;17.25;;;7.90;;
67140;SDS011;54058;52.010;5.546;2022-10-04T07:21:05;14.25;;;7.55;;
67140;SDS011;54058;52.010;5.546;2022-10-04T07:23:45;14.23;;;6.82;;
67140;SDS011;54058;52.010;5.546;2022-10-04T07:26:20;18.73;;;8.50;;
67140;SDS011;54058;52.010;5.546;2022-10-04T07:28:54;15.68;;;7.15;;
67140;SDS011;54058;52.010;5.546;2022-10-04T07:31:43;16.63;;;6.80;;
67140;SDS011;54058;52.010;5.546;2022-10-04T07:34:13;12.25;;;7.45;;
67140;SDS011;54058;52.010;5.546;2022-10-04T07:39:15;13.15;;;6.93;;
67140;SDS011;54058;52.010;5.546;2022-10-04T07:49:15;15.48;;;6.72;;
67140;SDS011;54058;52.010;5.546;2022-10-04T07:51:55;17.23;;;6.45;;
67140;SDS011;54058;52.010;5.546;2022-10-04T07:57:39;15.05;;;6.88;;
67140;SDS011;54058;52.010;5.546;2022-10-04T08:00:12;13.65;;;6.30;;
67140;SDS011;54058;52.010;5.546;2022-10-04T08:02:56;10.43;;;6.05;;
67140;SDS011;54058;52.010;5.546;2022-10-04T08:05:32;13.95;;;5.93;;
67140;SDS011;54058;52.010;5.546;2022-10-04T08:08:13;9.20;;;5.90;;
67140;SDS011;54058;52.010;5.546;2022-10-04T08:11:09;9.73;;;4.97;;
67140;SDS011;54058;52.010;5.546;2022-10-04T08:16:37;11.23;;;6.13;;
67140;SDS011;54058;52.010;5.546;2022-10-04T08:33:47;14.38;;;5.22;;
67140;SDS011;54058;52.010;5.546;2022-10-04T08:39:19;10.30;;;5.55;;
67140;SDS011;54058;52.010;5.546;2022-10-04T09:08:15;9.05;;;5.25;;
67140;SDS011;54058;52.010;5.546;2022-10-04T09:13:48;14.85;;;5.45;;
67140;SDS011;54058;52.010;5.546;2022-10-04T09:19:22;13.90;;;6.20;;
67140;SDS011;54058;52.010;5.546;2022-10-04T09:22:15;11.50;;;5.40;;
67140;SDS011;54058;52.010;5.546;2022-10-04T09:30:05;11.90;;;5.82;;
67140;SDS011;54058;52.010;5.546;2022-10-04T09:36:00;13.65;;;5.95;;
67140;SDS011;54058;52.010;5.546;2022-10-04T09:47:43;13.15;;;5.07;;
67140;SDS011;54058;52.010;5.546;2022-10-04T10:00:58;11.23;;;4.80;;
67140;SDS011;54058;52.010;5.546;2022-10-04T10:09:04;10.85;;;4.78;;
67140;SDS011;54058;52.010;5.546;2022-10-04T10:23:04;9.38;;;4.53;;
67140;SDS011;54058;52.010;5.546;2022-10-04T11:27:57;7.15;;;4.03;;
67140;SDS011;54058;52.010;5.546;2022-10-04T11:33:49;8.85;;;4.28;;
67140;SDS011;54058;52.010;5.546;2022-10-04T11:36:27;9.80;;;3.80;;
67140;SDS011;54058;52.010;5.546;2022-10-04T11:47:27;9.93;;;3.90;;
67140;SDS011;54058;52.010;5.546;2022-10-04T11:56:29;6.65;;;3.20;;
67140;SDS011;54058;52.010;5.546;2022-10-04T11:59:19;6.55;;;3.70;;
67140;SDS011;54058;52.010;5.546;2022-10-04T12:32:41;7.82;;;3.58;;
67140;SDS011;54058;52.010;5.546;2022-10-04T12:39:01;9.88;;;3.70;;
67140;SDS011;54058;52.010;5.546;2022-10-04T12:41:10;10.55;;;3.75;;
67140;SDS011;54058;52.010;5.546;2022-10-04T12:49:01;7.95;;;3.05;;
67140;SDS011;54058;52.010;5.546;2022-10-04T12:59:47;9.57;;;3.08;;
67140;SDS011;54058;52.010;5.546;2022-10-04T13:02:30;9.60;;;3.50;;
67140;SDS011;54058;52.010;5.546;2022-10-04T13:16:18;6.03;;;2.70;;
67140;SDS011;54058;52.010;5.546;2022-10-04T13:22:22;15.60;;;3.20;;
67140;SDS011;54058;52.010;5.546;2022-10-04T13:27:23;5.38;;;2.65;;
67140;SDS011;54058;52.010;5.546;2022-10-04T13:30:20;9.55;;;3.20;;
67140;SDS011;54058;52.010;5.546;2022-10-04T13:35:24;9.80;;;3.08;;
67140;SDS011;54058;52.010;5.546;2022-10-04T13:40:49;5.38;;;3.08;;
67140;SDS011;54058;52.010;5.546;2022-10-04T13:43:39;5.85;;;2.75;;
67140;SDS011;54058;52.010;5.546;2022-10-04T13:46:25;10.05;;;3.25;;
67140;SDS011;54058;52.010;5.546;2022-10-04T13:55:40;6.15;;;2.78;;
67140;SDS011;54058;52.010;5.546;2022-10-04T14:50:31;8.05;;;2.88;;
67140;SDS011;54058;52.010;5.546;2022-10-04T15:09:56;9.20;;;2.97;;
67140;SDS011;54058;52.010;5.546;2022-10-04T15:12:41;4.72;;;2.85;;
67140;SDS011;54058;52.010;5.546;2022-10-04T15:21:29;4.38;;;2.70;;
67140;SDS011;54058;52.010;5.546;2022-10-04T15:32:39;16.30;;;3.25;;
67140;SDS011;54058;52.010;5.546;2022-10-04T15:35:32;7.22;;;2.78;;
67140;SDS011;54058;52.010;5.546;2022-10-04T15:43:32;10.60;;;3.45;;
67140;SDS011;54058;52.010;5.546;2022-10-04T15:46:36;7.80;;;3.15;;
67140;SDS011;54058;52.010;5.546;2022-10-04T15:54:41;6.07;;;3.38;;
67140;SDS011;54058;52.010;5.546;2022-10-04T15:58:08;6.82;;;3.50;;
67140;SDS011;54058;52.010;5.546;2022-10-04T16:03:14;7.72;;;3.50;;
67140;SDS011;54058;52.010;5.546;2022-10-04T16:06:01;4.85;;;2.65;;
67140;SDS011;54058;52.010;5.546;2022-10-04T16:23:20;9.15;;;2.80;;
67140;SDS011;54058;52.010;5.546;2022-10-04T16:25:48;10.15;;;3.30;;
67140;SDS011;54058;52.010;5.546;2022-10-04T16:28:25;10.60;;;3.13;;
67140;SDS011;54058;52.010;5.546;2022-10-04T16:33:43;7.70;;;3.25;;
67140;SDS011;54058;52.010;5.546;2022-10-04T16:39:33;11.70;;;3.15;;
67140;SDS011;54058;52.010;5.546;2022-10-04T16:42:46;11.18;;;3.25;;
67140;SDS011;54058;52.010;5.546;2022-10-04T16:47:46;7.50;;;3.85;;
67140;SDS011;54058;52.010;5.546;2022-10-04T16:50:42;7.85;;;3.83;;
67140;SDS011;54058;52.010;5.546;2022-10-04T16:56:10;6.15;;;3.25;;
67140;SDS011;54058;52.010;5.546;2022-10-04T17:01:32;9.98;;;4.45;;
67140;SDS011;54058;52.010;5.546;2022-10-04T17:06:57;14.20;;;6.18;;
67140;SDS011;54058;52.010;5.546;2022-10-04T17:12:18;17.77;;;5.90;;
67140;SDS011;54058;52.010;5.546;2022-10-04T17:31:11;7.10;;;3.33;;
67140;SDS011;54058;52.010;5.546;2022-10-04T17:36:32;7.45;;;3.92;;
67140;SDS011;54058;52.010;5.546;2022-10-04T17:45:24;6.13;;;3.50;;
67140;SDS011;54058;52.010;5.546;2022-10-04T17:48:14;11.60;;;4.18;;
67140;SDS011;54058;52.010;5.546;2022-10-04T17:51:28;14.20;;;4.38;;
67140;SDS011;54058;52.010;5.546;2022-10-04T17:54:28;8.20;;;4.63;;
67140;SDS011;54058;52.010;5.546;2022-10-04T17:57:26;9.82;;;4.40;;
67140;SDS011;54058;52.010;5.546;2022-10-04T18:00:14;6.53;;;4.47;;
67140;SDS011;54058;52.010;5.546;2022-10-04T18:03:00;6.05;;;4.10;;
67140;SDS011;54058;52.010;5.546;2022-10-04T18:05:42;12.65;;;4.22;;
67140;SDS011;54058;52.010;5.546;2022-10-04T18:11:12;12.30;;;4.38;;
67140;SDS011;54058;52.010;5.546;2022-10-04T18:16:56;8.00;;;3.90;;
67140;SDS011;54058;52.010;5.546;2022-10-04T18:24:39;16.83;;;5.13;;
67140;SDS011;54058;52.010;5.546;2022-10-04T18:27:13;16.45;;;4.95;;
67140;SDS011;54058;52.010;5.546;2022-10-04T18:29:43;6.63;;;4.77;;
67140;SDS011;54058;52.010;5.546;2022-10-04T18:34:57;9.57;;;4.28;;
67140;SDS011;54058;52.010;5.546;2022-10-04T18:37:32;13.32;;;3.83;;
67140;SDS011;54058;52.010;5.546;2022-10-04T18:40:12;13.73;;;4.60;;
67140;SDS011;54058;52.010;5.546;2022-10-04T18:42:56;10.07;;;4.53;;
67140;SDS011;54058;52.010;5.546;2022-10-04T18:45:29;10.90;;;4.95;;
67140;SDS011;54058;52.010;5.546;2022-10-04T18:47:58;9.88;;;4.45;;
67140;SDS011;54058;52.010;5.546;2022-10-04T18:50:37;6.78;;;4.30;;
67140;SDS011;54058;52.010;5.546;2022-10-04T18:56:00;12.38;;;4.72;;
67140;SDS011;54058;52.010;5.546;2022-10-04T19:01:41;12.25;;;4.60;;
67140;SDS011;54058;52.010;5.546;2022-10-04T19:07:17;8.65;;;4.68;;
67140;SDS011;54058;52.010;5.546;2022-10-04T19:10:02;8.68;;;5.47;;
67140;SDS011;54058;52.010;5.546;2022-10-04T19:21:44;8.95;;;4.70;;
67140;SDS011;54058;52.010;5.546;2022-10-04T19:24:35;10.18;;;4.53;;
67140;SDS011;54058;52.010;5.546;2022-10-04T19:32:36;15.13;;;4.65;;
67140;SDS011;54058;52.010;5.546;2022-10-04T19:40:37;12.20;;;4.50;;
67140;SDS011;54058;52.010;5.546;2022-10-04T19:43:09;10.35;;;4.80;;
67140;SDS011;54058;52.010;5.546;2022-10-04T19:48:26;14.00;;;4.65;;
67140;SDS011;54058;52.010;5.546;2022-10-04T19:51:00;10.93;;;4.28;;
67140;SDS011;54058;52.010;5.546;2022-10-04T19:53:34;10.50;;;3.83;;
67140;SDS011;54058;52.010;5.546;2022-10-04T19:56:07;7.85;;;4.68;;
67140;SDS011;54058;52.010;5.546;2022-10-04T19:58:43;6.53;;;4.47;;
67140;SDS011;54058;52.010;5.546;2022-10-04T20:03:40;12.55;;;4.32;;
67140;SDS011;54058;52.010;5.546;2022-10-04T20:06:06;8.03;;;4.07;;
67140;SDS011;54058;52.010;5.546;2022-10-04T20:11:48;7.90;;;4.60;;
67140;SDS011;54058;52.010;5.546;2022-10-04T20:19:35;5.80;;;3.80;;
67140;SDS011;54058;52.010;5.546;2022-10-04T20:27:01;5.32;;;3.63;;
67140;SDS011;54058;52.010;5.546;2022-10-04T20:34:52;7.15;;;4.13;;
67140;SDS011;54058;52.010;5.546;2022-10-04T20:37:19;16.42;;;4.43;;
67140;SDS011;54058;52.010;5.546;2022-10-04T20:42:33;6.88;;;3.95;;
67140;SDS011;54058;52.010;5.546;2022-10-04T20:50:12;7.80;;;4.68;;
67140;SDS011;54058;52.010;5.546;2022-10-04T20:52:57;11.95;;;4.18;;
67140;SDS011;54058;52.010;5.546;2022-10-04T20:55:31;7.07;;;3.90;;
67140;SDS011;54058;52.010;5.546;2022-10-04T20:58:00;5.90;;;4.20;;
67140;SDS011;54058;52.010;5.546;2022-10-04T21:00:29;9.27;;;4.22;;
67140;SDS011;54058;52.010;5.546;2022-10-04T21:03:14;9.80;;;4.28;;
67140;SDS011;54058;52.010;5.546;2022-10-04T21:05:41;10.65;;;4.18;;
67140;SDS011;54058;52.010;5.546;2022-10-04T21:08:16;10.07;;;4.32;;
67140;SDS011;54058;52.010;5.546;2022-10-04T21:16:31;5.82;;;4.07;;
67140;SDS011;54058;52.010;5.546;2022-10-04T21:19:26;7.85;;;3.95;;
67140;SDS011;54058;52.010;5.546;2022-10-04T21:21:58;6.88;;;4.13;;
67140;SDS011;54058;52.010;5.546;2022-10-04T21:30:03;7.90;;;4.18;;
67140;SDS011;54058;52.010;5.546;2022-10-04T21:32:37;8.23;;;4.20;;
67140;SDS011;54058;52.010;5.546;2022-10-04T21:35:03;11.00;;;4.28;;
67140;SDS011;54058;52.010;5.546;2022-10-04T21:37:30;9.65;;;4.20;;
67140;SDS011;54058;52.010;5.546;2022-10-04T21:39:56;9.35;;;4.30;;
67140;SDS011;54058;52.010;5.546;2022-10-04T21:42:21;6.97;;;4.30;;
67140;SDS011;54058;52.010;5.546;2022-10-04T21:44:47;8.93;;;4.28;;
67140;SDS011;54058;52.010;5.546;2022-10-04T21:47:13;6.07;;;4.10;;
67140;SDS011;54058;52.010;5.546;2022-10-04T21:49:39;12.10;;;5.20;;
67140;SDS011;54058;52.010;5.546;2022-10-04T21:52:04;8.30;;;4.35;;
67140;SDS011;54058;52.010;5.546;2022-10-04T21:54:31;10.27;;;4.40;;
67140;SDS011;54058;52.010;5.546;2022-10-04T21:56:57;10.82;;;4.55;;
67140;SDS011;54058;52.010;5.546;2022-10-04T21:59:23;6.22;;;4.07;;
67140;SDS011;54058;52.010;5.546;2022-10-04T22:01:48;7.80;;;4.78;;
67140;SDS011;54058;52.010;5.546;2022-10-04T22:04:14;7.43;;;4.63;;
67140;SDS011;54058;52.010;5.546;2022-10-04T22:06:40;8.43;;;4.50;;
67140;SDS011;54058;52.010;5.546;2022-10-04T22:09:05;9.15;;;5.00;;
67140;SDS011;54058;52.010;5.546;2022-10-04T22:11:32;8.45;;;4.60;;
67140;SDS011;54058;52.010;5.546;2022-10-04T22:13:57;9.05;;;4.80;;
67140;SDS011;54058;52.010;5.546;2022-10-04T22:16:24;8.20;;;4.55;;
67140;SDS011;54058;52.010;5.546;2022-10-04T22:18:49;6.70;;;4.40;;
67140;SDS011;54058;52.010;5.546;2022-10-04T22:21:15;8.98;;;4.97;;
67140;SDS011;54058;52.010;5.546;2022-10-04T22:23:41;12.02;;;5.22;;
67140;SDS011;54058;52.010;5.546;2022-10-04T22:26:12;6.75;;;4.55;;
67140;SDS011;54058;52.010;5.546;2022-10-04T22:28:48;9.88;;;4.72;;
67140;SDS011;54058;52.010;5.546;2022-10-04T22:31:16;8.73;;;4.75;;
67140;SDS011;54058;52.010;5.546;2022-10-04T22:33:45;8.60;;;4.65;;
67140;SDS011;54058;52.010;5.546;2022-10-04T22:36:17;8.90;;;4.40;;
67140;SDS011;54058;52.010;5.546;2022-10-04T22:38:59;7.90;;;4.85;;
67140;SDS011;54058;52.010;5.546;2022-10-04T22:41:35;12.38;;;5.50;;
67140;SDS011;54058;52.010;5.546;2022-10-04T22:46:36;11.73;;;4.72;;
67140;SDS011;54058;52.010;5.546;2022-10-04T22:49:08;11.80;;;5.20;;
67140;SDS011;54058;52.010;5.546;2022-10-04T22:51:36;11.95;;;5.20;;
67140;SDS011;54058;52.010;5.546;2022-10-04T22:54:08;7.32;;;5.05;;
67140;SDS011;54058;52.010;5.546;2022-10-04T22:56:39;7.82;;;4.30;;
67140;SDS011;54058;52.010;5.546;2022-10-04T22:59:07;9.02;;;4.97;;
67140;SDS011;54058;52.010;5.546;2022-10-04T23:01:37;7.25;;;4.43;;
67140;SDS011;54058;52.010;5.546;2022-10-04T23:04:09;11.88;;;4.90;;
67140;SDS011;54058;52.010;5.546;2022-10-04T23:06:48;11.00;;;5.38;;
67140;SDS011;54058;52.010;5.546;2022-10-04T23:09:15;10.38;;;5.65;;
67140;SDS011;54058;52.010;5.546;2022-10-04T23:11:41;8.85;;;5.03;;
67140;SDS011;54058;52.010;5.546;2022-10-04T23:14:07;11.55;;;5.15;;
67140;SDS011;54058;52.010;5.546;2022-10-04T23:16:33;10.05;;;5.72;;
67140;SDS011;54058;52.010;5.546;2022-10-04T23:19:04;10.80;;;5.18;;
67140;SDS011;54058;52.010;5.546;2022-10-04T23:21:35;13.85;;;4.35;;
67140;SDS011;54058;52.010;5.546;2022-10-04T23:24:06;8.45;;;4.60;;
67140;SDS011;54058;52.010;5.546;2022-10-04T23:26:46;8.27;;;4.40;;
67140;SDS011;54058;52.010;5.546;2022-10-04T23:29:26;9.77;;;5.00;;
67140;SDS011;54058;52.010;5.546;2022-10-04T23:31:56;7.75;;;5.13;;
67140;SDS011;54058;52.010;5.546;2022-10-04T23:34:23;16.88;;;5.07;;
67140;SDS011;54058;52.010;5.546;2022-10-04T23:36:53;11.98;;;5.20;;
67140;SDS011;54058;52.010;5.546;2022-10-04T23:39:22;8.93;;;4.65;;
67140;SDS011;54058;52.010;5.546;2022-10-04T23:41:50;6.45;;;4.40;;
67140;SDS011;54058;52.010;5.546;2022-10-04T23:44:18;9.93;;;5.30;;
67140;SDS011;54058;52.010;5.546;2022-10-04T23:46:45;9.20;;;4.65;;
67140;SDS011;54058;52.010;5.546;2022-10-04T23:49:12;6.55;;;4.78;;
67140;SDS011;54058;52.010;5.546;2022-10-04T23:51:39;10.70;;;5.05;;
67140;SDS011;54058;52.010;5.546;2022-10-04T23:54:09;9.23;;;5.00;;
67140;SDS011;54058;52.010;5.546;2022-10-04T23:56:38;8.77;;;4.95;;
67140;SDS011;54058;52.010;5.546;2022-10-04T23:59:07;10.57;;;4.80;;
